createdAt,value
2019-04-14T00:01:56.973Z,73.80
2019-04-14T00:04:40.749Z,74.30
2019-04-14T00:07:10.161Z,74.50
2019-04-14T00:09:43.047Z,74.70
2019-04-14T00:12:12.672Z,74.70
2019-04-14T00:14:42.529Z,74.70
2019-04-14T00:17:12.901Z,74.70
2019-04-14T00:19:43.457Z,74.50
2019-04-14T00:22:12.590Z,74.50
2019-04-14T00:24:42.492Z,74.50
2019-04-14T00:27:12.849Z,74.50
2019-04-14T00:29:43.611Z,74.80
2019-04-14T00:32:12.552Z,74.80
2019-04-14T00:34:59.804Z,74.70
2019-04-14T00:38:04.131Z,74.80
2019-04-14T00:40:41.085Z,74.80
2019-04-14T00:43:29.077Z,74.70
2019-04-14T00:46:04.318Z,74.80
2019-04-14T00:48:34.176Z,74.80
2019-04-14T00:51:04.785Z,74.70
2019-04-14T00:53:34.055Z,74.70
2019-04-14T00:56:04.070Z,74.70
2019-04-14T00:58:34.316Z,74.80
2019-04-14T01:03:37.706Z,74.70
2019-04-14T01:06:07.665Z,74.80
2019-04-14T01:08:36.684Z,75.00
2019-04-14T01:11:05.850Z,75.10
2019-04-14T01:13:35.406Z,75.00
2019-04-14T01:16:11.609Z,75.10
2019-04-14T01:18:36.432Z,75.00
2019-04-14T01:21:08.818Z,75.00
2019-04-14T01:23:39.073Z,75.20
2019-04-14T01:26:09.329Z,74.90
2019-04-14T01:28:39.601Z,75.20
2019-04-14T01:31:09.858Z,75.20
2019-04-14T01:33:40.120Z,75.10
2019-04-14T01:36:10.513Z,75.20
2019-04-14T01:38:40.607Z,75.20
2019-04-14T01:41:10.624Z,75.20
2019-04-14T01:43:40.593Z,75.30
2019-04-14T01:46:17.767Z,75.50
2019-04-14T01:48:41.047Z,75.30
2019-04-14T01:51:18.850Z,75.30
2019-04-14T01:53:57.399Z,75.70
2019-04-14T01:56:49.246Z,75.50
2019-04-14T01:59:19.768Z,75.30
2019-04-14T02:01:49.945Z,75.70
2019-04-14T02:04:18.879Z,75.40
2019-04-14T02:06:48.416Z,75.50
2019-04-14T02:09:18.619Z,75.70
2019-04-14T02:11:48.733Z,75.80
2019-04-14T02:14:18.974Z,75.70
2019-04-14T02:16:52.608Z,75.60
2019-04-14T02:19:19.885Z,76.10
2019-04-14T02:21:49.896Z,75.90
2019-04-14T02:24:19.900Z,75.90
2019-04-14T02:26:50.280Z,76.10
2019-04-14T02:29:19.305Z,76.00
2019-04-14T02:32:18.638Z,76.00
2019-04-14T02:37:19.689Z,76.00
2019-04-14T02:39:55.276Z,76.80
2019-04-14T02:42:30.488Z,76.10
2019-04-14T02:47:40.375Z,76.30
2019-04-14T02:52:20.579Z,76.50
2019-04-14T02:59:49.915Z,76.50
2019-04-14T03:02:30.820Z,76.80
2019-04-14T03:05:05.597Z,76.90
2019-04-14T03:07:40.133Z,76.90
2019-04-14T03:09:53.667Z,76.70
2019-04-14T03:12:38.451Z,76.70
2019-04-14T03:15:01.568Z,76.50
2019-04-14T03:23:20.423Z,76.70
2019-04-14T03:25:45.430Z,77.60
2019-04-14T03:28:38.499Z,76.80
2019-04-14T03:34:18.187Z,76.80
2019-04-14T03:37:04.822Z,76.80
2019-04-14T03:38:50.854Z,76.70
2019-04-14T03:41:22.777Z,76.80
2019-04-14T03:43:44.604Z,76.90
2019-04-14T03:46:19.661Z,76.80
2019-04-14T03:49:03.581Z,76.90
2019-04-14T03:51:21.327Z,76.90
2019-04-14T03:53:42.763Z,77.70
2019-04-14T03:56:25.581Z,77.00
2019-04-14T03:58:55.375Z,77.00
2019-04-14T04:01:24.274Z,77.30
2019-04-14T04:03:54.207Z,77.10
2019-04-14T04:06:24.622Z,77.40
2019-04-14T04:08:55.234Z,77.40
2019-04-14T04:11:25.733Z,77.50
2019-04-14T04:13:54.644Z,77.50
2019-04-14T04:16:31.216Z,77.50
2019-04-14T04:19:13.452Z,77.60
2019-04-14T04:22:04.186Z,77.60
2019-04-14T04:24:43.826Z,77.50
2019-04-14T04:27:41.899Z,77.40
2019-04-14T04:30:49.362Z,77.40
2019-04-14T04:33:33.341Z,77.50
2019-04-14T04:36:07.392Z,77.70
2019-04-14T04:38:44.802Z,77.50
2019-04-14T04:41:14.710Z,77.50
2019-04-14T04:43:43.620Z,78.00
2019-04-14T04:46:13.420Z,77.00
2019-04-14T04:48:43.585Z,77.70
2019-04-14T04:51:13.928Z,77.80
2019-04-14T04:53:44.039Z,77.70
2019-04-14T04:56:14.113Z,77.70
2019-04-14T04:58:43.507Z,77.70
2019-04-14T05:01:12.937Z,77.70
2019-04-14T05:03:42.818Z,77.90
2019-04-14T05:07:08.210Z,78.00
2019-04-14T05:10:00.192Z,78.10
2019-04-14T05:12:43.544Z,78.10
2019-04-14T05:15:38.020Z,78.10
2019-04-14T05:18:09.058Z,78.20
2019-04-14T05:20:38.170Z,78.50
2019-04-14T05:23:10.246Z,78.60
2019-04-14T05:25:40.725Z,78.20
2019-04-14T05:28:09.839Z,78.50
2019-04-14T05:30:39.315Z,78.00
2019-04-14T05:33:09.576Z,78.50
2019-04-14T05:35:38.706Z,78.40
2019-04-14T05:38:08.566Z,78.40
2019-04-14T05:40:38.518Z,78.80
2019-04-14T05:43:08.772Z,78.60
2019-04-14T05:45:39.423Z,79.00
2019-04-14T05:48:09.739Z,78.70
2019-04-14T05:50:39.989Z,78.80
2019-04-14T05:53:09.128Z,78.50
2019-04-14T05:55:39.463Z,78.50
2019-04-14T05:58:09.939Z,78.50
2019-04-14T06:00:42.054Z,78.60
2019-04-14T06:03:12.396Z,78.40
2019-04-14T06:05:42.752Z,78.50
2019-04-14T06:08:12.230Z,78.70
2019-04-14T06:10:41.251Z,78.50
2019-04-14T06:13:11.802Z,78.70
2019-04-14T06:15:41.053Z,78.50
2019-04-14T06:18:09.965Z,78.80
2019-04-14T06:20:39.007Z,78.70
2019-04-14T06:23:07.832Z,79.00
2019-04-14T06:25:36.719Z,78.60
2019-04-14T06:28:05.924Z,78.50
2019-04-14T06:30:48.453Z,78.50
2019-04-14T06:33:41.884Z,78.60
2019-04-14T06:36:40.923Z,78.20
2019-04-14T06:39:16.442Z,78.30
2019-04-14T06:41:45.347Z,78.40
2019-04-14T06:44:14.273Z,78.20
2019-04-14T06:46:43.075Z,78.10
2019-04-14T06:49:11.998Z,78.00
2019-04-14T06:51:41.038Z,78.00
2019-04-14T06:54:12.266Z,77.80
2019-04-14T06:56:41.079Z,77.60
2019-04-14T06:59:09.950Z,77.50
2019-04-14T07:01:39.323Z,77.50
2019-04-14T07:04:08.783Z,77.30
2019-04-14T07:06:37.555Z,77.40
2019-04-14T07:09:07.170Z,77.20
2019-04-14T07:11:36.271Z,77.20
2019-04-14T07:14:05.221Z,77.20
2019-04-14T07:16:33.974Z,77.20
2019-04-14T07:19:03.233Z,77.20
2019-04-14T07:21:32.105Z,77.10
2019-04-14T07:24:01.162Z,77.10
2019-04-14T07:26:30.391Z,77.00
2019-04-14T07:28:59.738Z,76.90
2019-04-14T07:31:46.921Z,76.80
2019-04-14T07:34:23.667Z,76.80
2019-04-14T07:37:00.075Z,76.70
2019-04-14T07:39:48.281Z,76.70
2019-04-14T07:42:22.672Z,76.60
2019-04-14T07:45:04.653Z,76.60
2019-04-14T07:47:41.234Z,76.80
2019-04-14T07:50:20.758Z,76.30
2019-04-14T07:53:07.278Z,76.10
2019-04-14T07:55:59.687Z,76.70
2019-04-14T07:58:44.654Z,75.80
2019-04-14T08:01:16.754Z,75.60
2019-04-14T08:04:07.771Z,75.50
2019-04-14T08:06:38.427Z,75.40
2019-04-14T08:09:07.908Z,75.20
2019-04-14T08:11:37.075Z,75.20
2019-04-14T08:14:05.933Z,75.20
2019-04-14T08:16:34.746Z,75.10
2019-04-14T08:19:03.612Z,74.90
2019-04-14T08:21:32.847Z,74.80
2019-04-14T08:24:02.050Z,74.70
2019-04-14T08:26:31.466Z,74.30
2019-04-14T08:29:00.253Z,74.30
2019-04-14T08:31:29.343Z,74.60
2019-04-14T08:33:58.425Z,74.50
2019-04-14T08:36:27.543Z,74.10
2019-04-14T08:38:56.418Z,74.00
2019-04-14T08:41:27.275Z,73.70
2019-04-14T08:44:21.352Z,73.40
2019-04-14T08:47:11.575Z,73.30
2019-04-14T08:49:59.557Z,73.10
2019-04-14T08:52:36.473Z,72.90
2019-04-14T08:55:18.070Z,72.70
2019-04-14T08:58:07.135Z,72.70
2019-04-14T09:01:04.180Z,72.90
2019-04-14T09:03:54.898Z,72.90
2019-04-14T09:06:37.672Z,72.30
2019-04-14T09:09:24.018Z,72.00
2019-04-14T09:12:15.873Z,72.30
2019-04-14T09:14:42.734Z,72.20
2019-04-14T09:17:12.927Z,72.20
2019-04-14T09:19:44.691Z,71.90
2019-04-14T09:22:13.798Z,71.50
2019-04-14T09:24:45.627Z,71.80
2019-04-14T09:27:14.562Z,71.40
2019-04-14T09:29:43.663Z,71.60
2019-04-14T09:32:13.539Z,71.30
2019-04-14T09:34:42.573Z,71.20
2019-04-14T09:37:14.223Z,70.80
2019-04-14T09:39:42.977Z,70.50
2019-04-14T09:42:13.742Z,70.20
2019-04-14T09:44:42.529Z,70.00
2019-04-14T09:47:11.601Z,69.70
2019-04-14T09:49:40.668Z,69.80
2019-04-14T09:52:09.494Z,70.20
2019-04-14T09:54:38.632Z,70.30
2019-04-14T09:57:07.490Z,70.00
2019-04-14T09:59:36.254Z,69.10
2019-04-14T10:02:05.269Z,69.50
2019-04-14T10:04:34.234Z,69.60
2019-04-14T10:07:03.646Z,69.10
2019-04-14T10:09:32.564Z,68.90
2019-04-14T10:12:01.361Z,68.60
2019-04-14T10:14:30.443Z,67.90
2019-04-14T10:17:01.322Z,68.30
2019-04-14T10:19:30.395Z,67.90
2019-04-14T10:21:59.228Z,68.10
2019-04-14T10:24:28.065Z,68.10
2019-04-14T10:26:57.311Z,68.00
2019-04-14T10:29:26.326Z,67.60
2019-04-14T10:31:55.395Z,67.40
2019-04-14T10:34:24.195Z,65.90
2019-04-14T10:36:53.323Z,66.00
2019-04-14T10:39:22.178Z,65.40
2019-04-14T10:41:51.006Z,65.60
2019-04-14T10:44:19.801Z,65.50
2019-04-14T10:46:48.941Z,65.80
2019-04-14T10:49:17.775Z,64.90
2019-04-14T10:51:46.995Z,65.20
2019-04-14T10:54:16.120Z,64.90
2019-04-14T10:56:45.178Z,64.80
2019-04-14T10:59:14.461Z,65.10
2019-04-14T11:01:43.365Z,64.20
2019-04-14T11:04:12.211Z,64.60
2019-04-14T11:06:52.843Z,64.30
2019-04-14T11:09:21.864Z,64.40
2019-04-14T11:11:51.568Z,63.50
2019-04-14T11:14:20.349Z,63.10
2019-04-14T11:16:49.476Z,63.30
2019-04-14T11:19:18.581Z,62.40
2019-04-14T11:21:47.493Z,62.40
2019-04-14T11:24:16.531Z,62.50
2019-04-14T11:26:45.647Z,62.60
2019-04-14T11:29:14.790Z,62.60
2019-04-14T11:32:14.739Z,62.50
2019-04-14T11:35:00.141Z,62.30
2019-04-14T11:38:03.693Z,62.60
2019-04-14T11:40:36.801Z,62.70
2019-04-14T11:43:05.681Z,62.60
2019-04-14T11:45:34.480Z,61.80
2019-04-14T11:48:03.433Z,60.70
2019-04-14T11:50:32.467Z,61.30
2019-04-14T11:53:01.397Z,61.10
2019-04-14T11:55:30.184Z,61.20
2019-04-14T11:57:59.373Z,60.40
2019-04-14T12:00:45.900Z,61.00
2019-04-14T12:03:32.682Z,60.90
2019-04-14T12:06:39.374Z,60.70
2019-04-14T12:09:17.255Z,59.60
2019-04-14T12:11:46.409Z,60.20
2019-04-14T12:14:15.559Z,60.50
2019-04-14T12:16:44.596Z,60.50
2019-04-14T12:19:13.417Z,59.60
2019-04-14T12:21:42.279Z,59.80
2019-04-14T12:24:11.471Z,60.50
2019-04-14T12:26:40.366Z,60.70
2019-04-14T12:29:09.708Z,59.60
2019-04-14T12:31:39.602Z,58.10
2019-04-14T12:34:08.848Z,57.10
2019-04-14T12:36:37.819Z,58.90
2019-04-14T12:39:13.574Z,59.80
2019-04-14T12:41:47.214Z,59.90
2019-04-14T12:44:34.010Z,60.00
2019-04-14T12:47:24.963Z,59.10
2019-04-14T12:49:54.659Z,59.30
2019-04-14T12:52:25.969Z,59.60
2019-04-14T12:54:55.115Z,59.90
2019-04-14T12:57:32.846Z,59.40
2019-04-14T13:00:02.230Z,59.00
2019-04-14T13:02:37.507Z,58.30
2019-04-14T13:05:06.723Z,58.10
2019-04-14T13:07:36.951Z,57.00
2019-04-14T13:10:07.183Z,58.30
2019-04-14T13:12:36.104Z,58.90
2019-04-14T13:15:05.267Z,59.10
2019-04-14T13:17:34.167Z,59.20
2019-04-14T13:20:03.009Z,58.70
2019-04-14T13:22:34.156Z,57.40
2019-04-14T13:25:02.529Z,56.20
2019-04-14T13:27:31.465Z,56.20
2019-04-14T13:30:00.303Z,56.30
2019-04-14T13:32:35.912Z,56.50
2019-04-14T13:34:59.987Z,57.80
2019-04-14T13:37:28.787Z,56.90
2019-04-14T13:39:57.667Z,56.50
2019-04-14T13:42:26.459Z,57.70
2019-04-14T13:44:55.535Z,56.90
2019-04-14T13:47:24.346Z,56.50
2019-04-14T13:49:53.182Z,57.20
2019-04-14T13:52:22.310Z,56.50
2019-04-14T13:54:51.353Z,56.90
2019-04-14T13:57:23.548Z,56.00
2019-04-14T13:59:52.380Z,56.60
2019-04-14T14:02:21.512Z,56.90
2019-04-14T14:04:50.365Z,57.30
2019-04-14T14:07:19.421Z,57.10
2019-04-14T14:09:50.756Z,56.40
2019-04-14T14:12:43.809Z,57.20
2019-04-14T14:15:31.546Z,57.20
2019-04-14T14:18:29.106Z,57.30
2019-04-14T14:21:20.130Z,57.00
2019-04-14T14:24:06.806Z,56.20
2019-04-14T14:26:37.141Z,56.50
2019-04-14T14:29:06.154Z,56.60
2019-04-14T14:31:35.050Z,56.90
2019-04-14T14:34:04.219Z,56.80
2019-04-14T14:36:33.293Z,57.10
2019-04-14T14:39:02.186Z,54.40
2019-04-14T14:41:31.072Z,55.70
2019-04-14T14:44:02.686Z,56.50
2019-04-14T14:46:53.606Z,56.70
2019-04-14T14:49:26.739Z,56.00
2019-04-14T14:52:02.682Z,56.30
2019-04-14T14:54:31.626Z,56.40
2019-04-14T14:57:00.836Z,57.00
2019-04-14T14:59:29.932Z,57.10
2019-04-14T15:01:58.822Z,56.20
2019-04-14T15:04:27.655Z,56.70
2019-04-14T15:06:56.518Z,56.10
2019-04-14T15:09:25.751Z,55.60
2019-04-14T15:11:55.112Z,56.40
2019-04-14T15:14:23.963Z,56.30
2019-04-14T15:16:52.876Z,55.50
2019-04-14T15:19:21.959Z,55.30
2019-04-14T15:21:51.060Z,56.00
2019-04-14T15:24:20.327Z,56.60
2019-04-14T15:26:49.296Z,56.60
2019-04-14T15:29:18.261Z,56.50
2019-04-14T15:31:47.190Z,56.90
2019-04-14T15:34:16.163Z,56.30
2019-04-14T15:36:45.074Z,55.70
2019-04-14T15:39:13.859Z,55.10
2019-04-14T15:41:42.842Z,55.80
2019-04-14T15:44:11.630Z,55.40
2019-04-14T15:46:40.535Z,55.90
2019-04-14T15:49:10.830Z,56.50
2019-04-14T15:51:40.456Z,56.60
2019-04-14T15:54:09.833Z,56.50
2019-04-14T15:57:00.985Z,56.80
2019-04-14T15:59:51.673Z,56.40
2019-04-14T16:02:31.428Z,56.10
2019-04-14T16:05:25.578Z,56.30
2019-04-14T16:07:59.811Z,56.30
2019-04-14T16:10:47.852Z,56.10
2019-04-14T16:13:42.555Z,56.10
2019-04-14T16:16:29.587Z,55.60
2019-04-14T16:19:03.965Z,56.00
2019-04-14T16:21:33.317Z,56.30
2019-04-14T16:24:02.402Z,56.10
2019-04-14T16:26:46.342Z,56.30
2019-04-14T16:29:31.714Z,56.80
2019-04-14T16:32:20.772Z,56.80
2019-04-14T16:34:55.854Z,57.10
2019-04-14T16:37:25.467Z,57.20
2019-04-14T16:39:54.518Z,57.30
2019-04-14T16:42:24.620Z,57.60
2019-04-14T16:44:53.917Z,57.60
2019-04-14T16:47:23.585Z,57.90
2019-04-14T16:49:53.154Z,58.90
2019-04-14T16:52:25.797Z,58.00
2019-04-14T16:55:11.842Z,57.90
2019-04-14T16:58:18.629Z,57.90
2019-04-14T17:00:51.911Z,58.60
2019-04-14T17:03:21.280Z,58.50
2019-04-14T17:05:50.590Z,58.40
2019-04-14T17:08:19.963Z,58.50
2019-04-14T17:10:48.920Z,58.50
2019-04-14T17:13:18.155Z,58.60
2019-04-14T17:16:00.469Z,58.60
2019-04-14T17:19:07.074Z,58.80
2019-04-14T17:21:40.583Z,58.90
2019-04-14T17:24:27.304Z,59.00
2019-04-14T17:27:00.613Z,59.20
2019-04-14T17:30:04.264Z,59.30
2019-04-14T17:32:52.286Z,59.40
2019-04-14T17:35:35.339Z,59.50
2019-04-14T17:38:07.852Z,59.50
2019-04-14T17:40:59.044Z,59.60
2019-04-14T17:43:53.365Z,59.80
2019-04-14T17:46:40.965Z,60.10
2019-04-14T17:49:27.507Z,60.30
2019-04-14T17:52:15.156Z,60.80
2019-04-14T17:54:55.129Z,61.00
2019-04-14T17:57:49.269Z,61.20
2019-04-14T18:00:22.736Z,61.40
2019-04-14T18:02:58.065Z,61.60
2019-04-14T18:05:52.260Z,61.60
2019-04-14T18:08:39.450Z,61.70
2019-04-14T18:11:14.183Z,61.60
2019-04-14T18:14:14.307Z,61.60
2019-04-14T18:16:57.554Z,61.80
2019-04-14T18:19:32.597Z,61.90
2019-04-14T18:22:01.458Z,62.00
2019-04-14T18:24:41.555Z,62.30
2019-04-14T18:27:01.525Z,62.40
2019-04-14T18:29:48.213Z,62.30
2019-04-14T18:32:35.026Z,62.60
2019-04-14T18:35:26.114Z,62.70
2019-04-14T18:38:04.951Z,62.80
2019-04-14T18:40:39.584Z,62.80
2019-04-14T18:43:15.162Z,63.00
2019-04-14T18:45:54.814Z,63.10
2019-04-14T18:48:28.338Z,63.10
2019-04-14T18:51:10.847Z,63.10
2019-04-14T18:53:51.278Z,63.30
2019-04-14T18:56:51.896Z,63.50
2019-04-14T18:59:38.871Z,63.40
2019-04-14T19:02:09.281Z,63.70
2019-04-14T19:04:38.167Z,63.70
2019-04-14T19:07:07.671Z,64.00
2019-04-14T19:09:36.931Z,64.00
2019-04-14T19:12:24.957Z,64.20
2019-04-14T19:15:00.723Z,64.10
2019-04-14T19:17:39.890Z,64.30
2019-04-14T19:20:09.500Z,64.30
2019-04-14T19:22:38.277Z,64.40
2019-04-14T19:25:08.564Z,64.70
2019-04-14T19:27:38.946Z,64.80
2019-04-14T19:30:09.367Z,64.70
2019-04-14T19:32:40.243Z,64.80
2019-04-14T19:35:10.149Z,64.80
2019-04-14T19:37:40.842Z,64.90
2019-04-14T19:40:11.076Z,65.00
2019-04-14T19:42:41.178Z,65.10
2019-04-14T19:45:10.977Z,65.30
2019-04-14T19:47:41.340Z,65.30
2019-04-14T19:50:11.395Z,65.30
2019-04-14T19:52:42.682Z,65.40
2019-04-14T19:55:20.305Z,65.60
2019-04-14T19:57:43.985Z,65.60
2019-04-14T20:00:13.995Z,65.50
2019-04-14T20:02:44.047Z,65.70
2019-04-14T20:05:14.009Z,65.60
2019-04-14T20:07:42.828Z,65.80
2019-04-14T20:10:12.679Z,65.50
2019-04-14T20:12:41.709Z,65.60
2019-04-14T20:15:13.749Z,65.60
2019-04-14T20:17:51.960Z,65.70
2019-04-14T20:20:58.424Z,65.80
2019-04-14T20:23:32.235Z,65.90
2019-04-14T20:26:18.691Z,65.90
2019-04-14T20:29:06.995Z,66.30
2019-04-14T20:31:46.024Z,66.00
2019-04-14T20:34:15.174Z,66.20
2019-04-14T20:36:44.172Z,66.10
2019-04-14T20:39:15.235Z,66.40
2019-04-14T20:41:44.552Z,66.30
2019-04-14T20:44:14.605Z,66.80
2019-04-14T20:46:43.731Z,66.50
2019-04-14T20:49:12.924Z,66.50
2019-04-14T20:51:47.471Z,66.70
2019-04-14T20:54:17.117Z,66.60
2019-04-14T20:56:47.460Z,66.60
2019-04-14T20:59:16.843Z,66.50
2019-04-14T21:01:53.324Z,66.60
2019-04-14T21:04:40.715Z,66.60
2019-04-14T21:07:27.265Z,66.70
2019-04-14T21:10:05.213Z,66.60
2019-04-14T21:12:45.309Z,66.50
2019-04-14T21:15:48.821Z,66.40
2019-04-14T21:18:34.743Z,66.50
2019-04-14T21:21:10.031Z,66.40
2019-04-14T21:24:02.377Z,66.30
2019-04-14T21:27:05.810Z,66.30
2019-04-14T21:29:41.620Z,66.40
2019-04-14T21:32:23.280Z,66.60
2019-04-14T21:35:10.450Z,67.30
2019-04-14T21:37:57.246Z,67.00
2019-04-14T21:40:47.229Z,67.00
2019-04-14T21:43:16.343Z,67.40
2019-04-14T21:45:45.666Z,67.30
2019-04-14T21:48:14.608Z,67.60
2019-04-14T21:50:43.374Z,67.50
2019-04-14T21:53:12.749Z,66.90
2019-04-14T21:55:41.607Z,67.60
2019-04-14T21:58:25.326Z,67.60
2019-04-14T22:01:48.551Z,67.60
2019-04-14T22:04:29.482Z,67.60
2019-04-14T22:07:02.105Z,67.70
2019-04-14T22:09:34.254Z,67.60
2019-04-14T22:12:04.809Z,67.80
2019-04-14T22:14:34.198Z,67.90
2019-04-14T22:17:03.465Z,68.00
2019-04-14T22:19:32.522Z,68.00
2019-04-14T22:22:01.398Z,68.00
2019-04-14T22:24:30.765Z,68.00
2019-04-14T22:26:59.963Z,67.90
2019-04-14T22:29:29.134Z,68.00
2019-04-14T22:32:04.246Z,68.80
2019-04-14T22:34:33.258Z,68.00
2019-04-14T22:37:02.181Z,68.00
2019-04-14T22:39:30.966Z,68.00
2019-04-14T22:42:00.034Z,68.20
2019-04-14T22:44:29.076Z,68.20
2019-04-14T22:46:57.849Z,68.20
2019-04-14T22:49:26.971Z,68.30
2019-04-14T22:51:55.765Z,68.30
2019-04-14T22:54:24.575Z,68.30
2019-04-14T22:56:53.983Z,68.40
2019-04-14T22:59:22.831Z,68.60
2019-04-14T23:01:57.467Z,68.50
2019-04-14T23:04:51.315Z,68.60
2019-04-14T23:07:43.391Z,68.60
2019-04-14T23:10:46.659Z,68.60
2019-04-14T23:13:22.426Z,68.60
2019-04-14T23:16:01.639Z,68.70
2019-04-14T23:18:52.524Z,68.80
2019-04-14T23:21:40.514Z,68.80
2019-04-14T23:24:20.787Z,68.80
2019-04-14T23:26:52.871Z,68.80
2019-04-14T23:29:20.202Z,69.10
2019-04-14T23:31:49.287Z,69.10
2019-04-14T23:34:18.340Z,69.30
2019-04-14T23:36:47.136Z,69.30
2019-04-14T23:39:16.095Z,69.30
2019-04-14T23:41:45.192Z,69.30
2019-04-14T23:44:14.157Z,69.40
2019-04-14T23:46:43.353Z,69.50
2019-04-14T23:49:12.463Z,69.60
2019-04-14T23:51:41.536Z,69.60
2019-04-14T23:54:10.463Z,69.50
2019-04-14T23:56:39.238Z,69.60
2019-04-14T23:59:08.484Z,69.50
